createdAt,value
2022-12-01T00:03:36.622Z,92437.16
2022-12-01T00:08:40.412Z,92438.19
2022-12-01T00:13:42.353Z,92454.81
2022-12-01T00:18:44.414Z,92435.47
2022-12-01T00:23:48.200Z,92440.00
2022-12-01T00:28:52.190Z,92451.69
2022-12-01T00:33:55.072Z,92449.34
2022-12-01T00:38:57.402Z,92440.63
2022-12-01T00:43:59.310Z,92423.09
2022-12-01T00:49:01.244Z,92448.78
2022-12-01T00:54:03.223Z,92436.22
2022-12-01T00:59:07.212Z,92447.69
2022-12-01T01:04:09.193Z,92457.59
2022-12-01T01:09:12.474Z,92455.84
2022-12-01T01:14:14.677Z,92474.97
2022-12-01T01:19:17.509Z,92476.16
2022-12-01T01:24:20.446Z,92457.50
2022-12-01T01:29:22.446Z,92423.81
2022-12-01T01:34:24.397Z,92468.03
2022-12-01T01:39:26.340Z,92472.09
2022-12-01T01:44:49.170Z,92481.28
2022-12-01T01:49:52.231Z,92459.81
2022-12-01T01:54:55.766Z,92478.88
2022-12-01T02:00:11.332Z,92477.88
2022-12-01T02:05:21.134Z,92478.38
2022-12-01T02:10:43.594Z,92480.53
2022-12-01T02:15:57.650Z,92464.09
2022-12-01T02:21:14.141Z,92460.91
2022-12-01T02:26:43.942Z,92477.75
2022-12-01T02:31:54.935Z,92477.69
2022-12-01T02:37:08.532Z,92478.38
2022-12-01T02:42:48.660Z,92473.53
2022-12-01T02:47:54.987Z,92471.34
2022-12-01T02:52:57.560Z,92478.44
2022-12-01T02:57:59.583Z,92477.50
2022-12-01T03:03:40.999Z,92475.41
2022-12-01T03:09:14.238Z,92465.63
2022-12-01T03:14:45.483Z,92464.50
2022-12-01T03:19:56.190Z,92431.97
2022-12-01T03:25:02.245Z,92460.38
2022-12-01T03:30:05.172Z,92470.97
2022-12-01T03:35:14.523Z,92465.38
2022-12-01T03:40:21.639Z,92451.19
2022-12-01T03:45:51.336Z,92466.47
2022-12-01T03:51:18.234Z,92466.34
2022-12-01T03:56:24.047Z,92472.53
2022-12-01T04:01:32.767Z,92464.19
2022-12-01T04:06:34.927Z,92469.88
2022-12-01T04:11:55.434Z,92462.00
2022-12-01T04:16:57.369Z,92457.47
2022-12-01T04:21:59.264Z,92475.50
2022-12-01T04:27:01.231Z,92461.22
2022-12-01T04:32:03.335Z,92453.38
2022-12-01T04:37:06.618Z,92485.72
2022-12-01T04:42:09.539Z,92481.81
2022-12-01T04:47:11.489Z,92469.47
2022-12-01T04:52:13.478Z,92477.22
2022-12-01T04:57:15.445Z,92453.06
2022-12-01T05:02:17.498Z,92481.09
2022-12-01T05:07:19.555Z,92462.25
2022-12-01T05:12:21.634Z,92447.22
2022-12-01T05:17:23.714Z,92462.47
2022-12-01T05:22:56.865Z,92457.81
2022-12-01T05:27:47.776Z,92475.56
2022-12-01T05:32:50.527Z,92461.78
2022-12-01T05:37:52.711Z,92487.97
2022-12-01T05:42:54.781Z,92472.38
2022-12-01T05:47:58.661Z,92463.25
2022-12-01T05:53:00.726Z,92466.19
2022-12-01T05:58:03.287Z,92477.13
2022-12-01T06:03:05.595Z,92481.72
2022-12-01T06:08:08.265Z,92453.25
2022-12-01T06:13:10.343Z,92453.31
2022-12-01T06:18:12.274Z,92467.09
2022-12-01T06:23:14.231Z,92488.59
2022-12-01T06:28:17.036Z,92471.00
2022-12-01T06:33:19.078Z,92472.88
2022-12-01T06:38:21.055Z,92477.97
2022-12-01T06:43:23.033Z,92505.00
2022-12-01T06:48:25.055Z,92480.75
2022-12-01T06:53:28.545Z,92492.50
2022-12-01T06:58:31.077Z,92514.19
2022-12-01T07:03:33.342Z,92521.72
2022-12-01T07:08:35.280Z,92504.16
2022-12-01T07:13:37.191Z,92498.06
2022-12-01T07:18:40.607Z,92519.94
2022-12-01T07:23:43.318Z,92523.72
2022-12-01T07:28:45.615Z,92525.22
2022-12-01T07:33:47.668Z,92534.06
2022-12-01T07:38:49.733Z,92514.22
2022-12-01T07:43:51.677Z,92527.38
2022-12-01T07:48:55.046Z,92543.25
2022-12-01T07:54:01.447Z,92537.41
2022-12-01T07:59:03.489Z,92534.84
2022-12-01T08:04:05.416Z,92532.78
2022-12-01T08:09:07.386Z,92530.47
2022-12-01T08:14:09.350Z,92520.72
2022-12-01T08:19:11.673Z,92540.69
2022-12-01T08:24:13.622Z,92540.75
2022-12-01T08:29:19.916Z,92541.06
2022-12-01T08:34:22.540Z,92530.88
2022-12-01T08:39:24.479Z,92522.00
2022-12-01T08:44:26.450Z,92518.34
2022-12-01T08:49:28.384Z,92530.00
2022-12-01T08:54:30.280Z,92495.56
2022-12-01T08:59:32.199Z,92527.34
2022-12-01T09:04:34.184Z,92523.38
2022-12-01T09:09:37.303Z,92553.31
2022-12-01T09:14:41.284Z,92541.13
2022-12-01T09:19:44.241Z,92547.88
2022-12-01T09:24:46.176Z,92532.75
2022-12-01T09:29:48.484Z,92539.13
2022-12-01T09:34:50.739Z,92555.22
2022-12-01T09:39:52.659Z,92563.88
2022-12-01T09:44:57.347Z,92567.56
2022-12-01T09:50:02.030Z,92562.50
2022-12-01T09:55:11.884Z,92537.50
2022-12-01T10:00:15.838Z,92562.44
2022-12-01T10:05:23.872Z,92544.69
2022-12-01T10:10:36.436Z,92555.38
2022-12-01T10:15:45.990Z,92553.16
2022-12-01T10:21:12.212Z,92553.41
2022-12-01T10:26:19.640Z,92521.38
2022-12-01T10:31:31.186Z,92537.34
2022-12-01T10:36:34.766Z,92522.75
2022-12-01T10:41:39.401Z,92533.56
2022-12-01T10:46:55.162Z,92520.88
2022-12-01T10:51:58.454Z,92543.59
2022-12-01T10:57:02.024Z,92546.06
2022-12-01T11:02:06.453Z,92543.88
2022-12-01T11:07:16.802Z,92532.31
2022-12-01T11:12:20.582Z,92524.75
2022-12-01T11:17:22.496Z,92534.81
2022-12-01T11:22:31.189Z,92539.09
2022-12-01T11:27:57.654Z,92525.94
2022-12-01T11:33:03.235Z,92522.13
2022-12-01T11:38:29.225Z,92526.38
2022-12-01T11:43:36.259Z,92531.84
2022-12-01T11:48:39.139Z,92510.22
2022-12-01T11:53:43.177Z,92514.88
2022-12-01T11:58:47.907Z,92481.72
2022-12-01T12:04:00.801Z,92524.84
2022-12-01T12:15:25.471Z,92515.03
2022-12-01T12:20:57.951Z,92516.63
2022-12-01T12:26:06.272Z,92509.31
2022-12-01T12:31:17.117Z,92511.03
2022-12-01T12:36:25.878Z,92517.94
2022-12-01T12:41:47.403Z,92503.84
2022-12-01T12:47:09.536Z,92501.25
2022-12-01T12:52:24.077Z,92469.22
2022-12-01T12:57:33.848Z,92457.56
2022-12-01T13:02:50.749Z,92433.09
2022-12-01T13:08:06.234Z,92488.16
2022-12-01T13:13:27.901Z,92488.84
2022-12-01T13:18:43.913Z,92485.69
2022-12-01T13:23:48.445Z,92484.31
2022-12-01T13:28:57.276Z,92470.78
2022-12-01T13:34:02.639Z,92493.59
2022-12-01T13:39:15.432Z,92471.50
2022-12-01T13:44:25.212Z,92477.84
2022-12-01T13:49:36.918Z,92488.94
2022-12-01T13:54:38.938Z,92424.03
2022-12-01T14:00:03.299Z,92479.69
2022-12-01T14:05:23.041Z,92482.44
2022-12-01T14:10:24.916Z,92488.22
2022-12-01T14:15:40.282Z,92479.72
2022-12-01T14:20:48.555Z,92434.53
2022-12-01T14:26:05.419Z,92451.22
2022-12-01T14:31:07.509Z,92474.22
2022-12-01T14:36:24.543Z,92459.13
2022-12-01T14:41:33.525Z,92464.16
2022-12-01T14:46:42.897Z,92494.84
2022-12-01T14:51:49.110Z,92471.81
2022-12-01T14:56:53.800Z,92449.09
2022-12-01T15:02:06.828Z,92469.53
2022-12-01T15:07:08.800Z,92439.09
2022-12-01T15:12:26.347Z,92435.09
2022-12-01T15:17:31.301Z,92475.41
2022-12-01T15:22:34.063Z,92447.63
2022-12-01T15:27:36.063Z,92476.94
2022-12-01T15:32:38.854Z,92481.94
2022-12-01T15:37:44.297Z,92484.75
2022-12-01T15:43:00.822Z,92436.69
2022-12-01T15:48:15.899Z,92427.25
2022-12-01T15:53:25.175Z,92464.44
2022-12-01T15:58:33.164Z,92453.56
2022-12-01T16:03:46.930Z,92471.72
2022-12-01T16:09:07.689Z,92496.75
2022-12-01T16:14:24.795Z,92494.81
2022-12-01T16:19:34.034Z,92496.41
2022-12-01T16:24:42.966Z,92505.69
2022-12-01T16:30:06.373Z,92502.47
2022-12-01T16:35:32.133Z,92494.41
2022-12-01T16:40:34.042Z,92495.66
2022-12-01T16:45:35.929Z,92497.91
2022-12-01T16:50:39.324Z,92475.31
2022-12-01T16:55:49.818Z,92492.56
2022-12-01T17:00:54.930Z,92500.75
2022-12-01T17:05:59.972Z,92499.13
2022-12-01T17:11:06.979Z,92497.63
2022-12-01T17:16:13.965Z,92503.50
2022-12-01T17:21:20.215Z,92478.41
2022-12-01T17:26:23.196Z,92463.84
2022-12-01T17:31:25.323Z,92475.22
2022-12-01T17:36:27.751Z,92483.47
2022-12-01T17:41:35.867Z,92502.56
2022-12-01T17:46:38.665Z,92486.66
2022-12-01T17:51:41.819Z,92496.72
2022-12-01T17:56:43.946Z,92483.38
2022-12-01T18:01:46.147Z,92493.06
2022-12-01T18:06:53.777Z,92482.41
2022-12-01T18:11:57.147Z,92493.09
2022-12-01T18:16:59.177Z,92485.34
2022-12-01T18:22:01.230Z,92504.38
2022-12-01T18:27:03.322Z,92496.16
2022-12-01T18:32:05.354Z,92482.53
2022-12-01T18:37:07.313Z,92474.91
2022-12-01T18:42:09.296Z,92491.91
2022-12-01T18:47:11.378Z,92482.78
2022-12-01T18:52:13.530Z,92495.56
2022-12-01T18:57:15.512Z,92479.69
2022-12-01T19:02:17.643Z,92482.91
2022-12-01T19:07:26.605Z,92495.66
2022-12-01T19:12:34.157Z,92484.94
2022-12-01T19:17:39.926Z,92460.47
2022-12-01T19:22:42.171Z,92469.88
2022-12-01T19:27:44.439Z,92479.81
2022-12-01T19:32:48.443Z,92487.63
2022-12-01T19:37:52.676Z,92471.44
2022-12-01T19:42:55.604Z,92477.81
2022-12-01T19:47:57.840Z,92487.69
2022-12-01T19:53:01.279Z,92498.38
2022-12-01T19:58:06.347Z,92502.38
2022-12-01T20:03:10.192Z,92467.66
2022-12-01T20:08:13.917Z,92468.16
2022-12-01T20:13:15.889Z,92511.97
2022-12-01T20:18:17.848Z,92497.81
2022-12-01T20:23:19.803Z,92527.72
2022-12-01T20:28:21.768Z,92511.09
2022-12-01T20:33:24.798Z,92512.91
2022-12-01T20:38:27.870Z,92509.94
2022-12-01T20:43:30.071Z,92509.97
2022-12-01T20:48:33.202Z,92519.78
2022-12-01T20:53:36.099Z,92501.34
2022-12-01T20:58:39.818Z,92504.25
2022-12-01T21:03:43.632Z,92499.69
2022-12-01T21:08:47.490Z,92520.91
2022-12-01T21:13:50.446Z,92508.69
2022-12-01T21:18:54.974Z,92511.72
2022-12-01T21:24:20.124Z,92513.81
2022-12-01T21:29:26.611Z,92501.66
2022-12-01T21:34:29.282Z,92519.00
2022-12-01T21:39:31.234Z,92483.59
2022-12-01T21:44:37.710Z,92514.09
2022-12-01T21:49:39.866Z,92510.47
2022-12-01T21:54:41.882Z,92503.25
2022-12-01T21:59:43.761Z,92514.28
2022-12-01T22:04:45.678Z,92500.59
2022-12-01T22:09:48.332Z,92500.53
2022-12-01T22:14:50.935Z,92488.50
2022-12-01T22:20:15.050Z,92510.00
2022-12-01T22:25:26.356Z,92511.03
2022-12-01T22:30:28.292Z,92479.91
2022-12-01T22:35:38.893Z,92524.63
2022-12-01T22:41:15.978Z,92517.50
2022-12-01T22:46:22.952Z,92508.94
2022-12-01T22:51:24.919Z,92514.97
2022-12-01T22:56:26.910Z,92521.00
2022-12-01T23:01:33.017Z,92513.53
2022-12-01T23:06:57.269Z,92515.41
2022-12-01T23:12:05.187Z,92515.22
2022-12-01T23:17:31.386Z,92499.34
2022-12-01T23:22:33.322Z,92500.28
2022-12-01T23:27:35.504Z,92501.22
2022-12-01T23:32:37.936Z,92501.59
2022-12-01T23:37:42.438Z,92500.63
2022-12-01T23:42:44.368Z,92484.63
2022-12-01T23:47:46.507Z,92492.19
2022-12-01T23:52:48.467Z,92461.03
2022-12-01T23:57:52.362Z,92479.84
